Time;durP1;ratioP1;P1;durP2;ratioP2;P2;SDS_P1;SDS_P2;PMS_P1;PMS_P2;Temp;Humidity;BMP_temperature;BMP_pressure;BME280_temperature;BME280_humidity;BME280_pressure;Samples;Min_cycle;Max_cycle;Signal;HPM_P1;HPM_P2
2022/10/05 00:02:17;;;;;;;7.53;2.00;;;16.50;99.90;;;;;;5033467;28;20209;-79
2022/10/05 00:04:45;;;;;;;9.13;2.20;;;16.60;99.90;;;;;;5033730;28;20233;-78
2022/10/05 00:07:17;;;;;;;8.07;1.80;;;16.50;99.90;;;;;;5033744;28;20374;-78
2022/10/05 00:09:45;;;;;;;7.50;1.95;;;16.50;99.90;;;;;;5033140;28;20626;-79
2022/10/05 00:12:14;;;;;;;10.18;2.10;;;16.50;99.90;;;;;;5034018;28;20202;-80
2022/10/05 00:14:42;;;;;;;6.55;1.80;;;16.50;99.90;;;;;;5032954;28;20276;-80
2022/10/05 00:17:16;;;;;;;5.45;1.88;;;16.50;99.90;;;;;;5034136;28;20217;-81
2022/10/05 00:19:45;;;;;;;7.93;1.70;;;16.50;99.90;;;;;;5033789;28;20198;-79
2022/10/05 00:22:17;;;;;;;5.95;1.63;;;16.50;99.90;;;;;;5033278;28;20291;-79
2022/10/05 00:24:44;;;;;;;5.32;1.80;;;16.50;99.90;;;;;;5033540;28;20201;-79
2022/10/05 00:27:17;;;;;;;4.25;1.27;;;16.50;99.90;;;;;;5033294;28;20630;-80
2022/10/05 00:29:44;;;;;;;5.88;1.40;;;16.50;99.90;;;;;;5032478;28;20519;-78
2022/10/05 00:32:11;;;;;;;4.75;1.30;;;16.50;99.90;;;;;;5033348;28;20633;-79
2022/10/05 00:34:38;;;;;;;6.13;1.45;;;16.50;99.90;;;;;;5033393;28;20205;-78
2022/10/05 00:37:06;;;;;;;5.30;1.52;;;16.50;99.90;;;;;;5032670;28;20210;-80
2022/10/05 00:39:38;;;;;;;4.47;1.42;;;16.50;99.90;;;;;;5033322;28;20206;-79
2022/10/05 00:42:21;;;;;;;4.95;1.50;;;16.50;99.90;;;;;;5033025;28;20207;-79
2022/10/05 00:44:53;;;;;;;5.40;1.73;;;16.50;99.90;;;;;;5034561;28;20195;-78
2022/10/05 00:47:32;;;;;;;7.03;1.77;;;16.60;99.90;;;;;;5051867;28;20198;-80
2022/10/05 00:50:13;;;;;;;5.80;1.83;;;16.60;99.90;;;;;;5038283;28;20214;-79
2022/10/05 00:52:49;;;;;;;6.18;2.45;;;16.60;99.90;;;;;;5033425;28;20208;-80
2022/10/05 00:55:30;;;;;;;10.73;2.63;;;16.60;99.90;;;;;;5033028;28;20675;-79
2022/10/05 00:58:10;;;;;;;8.40;2.13;;;16.50;99.90;;;;;;5032328;28;20698;-80
2022/10/05 01:00:41;;;;;;;7.90;2.10;;;16.50;99.90;;;;;;5033255;28;20187;-79
2022/10/05 01:03:17;;;;;;;6.82;2.38;;;16.50;99.90;;;;;;5032612;28;20187;-80
2022/10/05 01:05:56;;;;;;;7.55;1.92;;;16.40;99.90;;;;;;5032028;28;20450;-77
2022/10/05 01:08:34;;;;;;;6.05;1.95;;;16.40;99.90;;;;;;5033141;28;20209;-79
2022/10/05 01:11:10;;;;;;;4.93;1.70;;;16.40;99.90;;;;;;5032181;28;20218;-79
2022/10/05 01:13:47;;;;;;;5.50;2.03;;;16.40;99.90;;;;;;5032556;28;20185;-78
2022/10/05 01:16:24;;;;;;;4.55;1.58;;;16.40;99.90;;;;;;5032388;28;20201;-79
2022/10/05 01:18:56;;;;;;;3.03;1.60;;;16.40;99.90;;;;;;5032221;28;20728;-80
2022/10/05 01:21:26;;;;;;;6.85;1.58;;;16.40;99.90;;;;;;5032721;28;20601;-80
2022/10/05 01:24:22;;;;;;;4.95;1.48;;;16.40;99.90;;;;;;5032217;28;20213;-80
2022/10/05 01:27:17;;;;;;;3.28;1.45;;;16.40;99.90;;;;;;5031802;28;20650;-79
2022/10/05 01:29:52;;;;;;;5.13;1.52;;;16.40;99.90;;;;;;5018835;28;20215;-79
2022/10/05 01:32:25;;;;;;;4.72;1.50;;;16.40;99.90;;;;;;5031582;28;20496;-80
2022/10/05 01:35:00;;;;;;;4.45;1.50;;;16.40;99.90;;;;;;5032162;28;20195;-79
2022/10/05 01:37:33;;;;;;;3.85;1.58;;;16.40;99.90;;;;;;5032388;28;20470;-79
2022/10/05 01:40:07;;;;;;;2.05;1.45;;;16.40;99.90;;;;;;5031197;28;20199;-80
2022/10/05 01:42:44;;;;;;;2.13;1.20;;;16.30;99.90;;;;;;5031994;28;20473;-80
2022/10/05 01:45:19;;;;;;;1.88;1.20;;;16.30;99.90;;;;;;5031831;28;20198;-78
2022/10/05 01:47:50;;;;;;;2.42;1.10;;;16.30;99.90;;;;;;5031724;28;20213;-79
2022/10/05 01:50:26;;;;;;;6.63;1.42;;;16.30;99.90;;;;;;5032307;28;20305;-79
2022/10/05 01:53:01;;;;;;;3.78;1.27;;;16.30;99.90;;;;;;5032141;28;20194;-80
2022/10/05 01:55:34;;;;;;;2.65;1.30;;;16.30;99.90;;;;;;5032062;28;20202;-79
2022/10/05 01:58:10;;;;;;;5.72;1.35;;;16.30;99.90;;;;;;5031870;28;20214;-79
2022/10/05 02:00:45;;;;;;;3.35;1.73;;;16.30;99.90;;;;;;5030954;28;20225;-77
2022/10/05 02:03:19;;;;;;;2.03;1.17;;;16.40;99.90;;;;;;5031873;28;20183;-79
2022/10/05 02:05:51;;;;;;;3.65;1.38;;;16.30;99.90;;;;;;5031934;28;20252;-79
2022/10/05 02:08:25;;;;;;;3.42;1.67;;;16.30;99.90;;;;;;5031524;28;20674;-79
2022/10/05 02:10:59;;;;;;;2.17;1.00;;;16.40;99.90;;;;;;5031686;28;20226;-79
2022/10/05 02:13:32;;;;;;;3.00;1.13;;;16.40;99.90;;;;;;5031728;28;20666;-79
2022/10/05 02:16:05;;;;;;;3.10;0.82;;;16.30;99.90;;;;;;5031211;28;20194;-79
2022/10/05 02:18:38;;;;;;;4.15;0.93;;;16.30;99.90;;;;;;5032113;28;20222;-80
2022/10/05 02:21:08;;;;;;;2.60;1.10;;;16.40;99.90;;;;;;5031642;28;20744;-80
2022/10/05 02:23:39;;;;;;;1.60;1.08;;;16.30;99.90;;;;;;5034980;23;20231;-79
2022/10/05 02:26:08;;;;;;;3.40;1.23;;;16.30;99.90;;;;;;5012085;28;20206;-81
2022/10/05 02:28:41;;;;;;;3.63;0.95;;;16.30;99.90;;;;;;5011313;28;20203;-79
2022/10/05 02:31:13;;;;;;;2.15;1.30;;;16.30;99.90;;;;;;5011747;28;20242;-79
2022/10/05 02:33:40;;;;;;;1.27;0.65;;;16.40;99.90;;;;;;5011830;28;20203;-78
2022/10/05 02:36:14;;;;;;;1.40;0.90;;;16.30;99.90;;;;;;4998388;28;20304;-80
2022/10/05 02:38:52;;;;;;;4.65;0.93;;;16.30;99.90;;;;;;4992382;28;20274;-79
2022/10/05 02:41:33;;;;;;;2.50;1.10;;;16.40;99.90;;;;;;4992407;28;20184;-78
2022/10/05 02:44:08;;;;;;;3.05;1.10;;;16.30;99.90;;;;;;4991438;28;20615;-79
2022/10/05 02:46:45;;;;;;;2.38;0.98;;;16.30;99.90;;;;;;4992086;28;20662;-79
2022/10/05 02:49:20;;;;;;;3.55;1.00;;;16.30;99.90;;;;;;4992599;28;20214;-79
2022/10/05 02:51:55;;;;;;;3.60;1.38;;;16.30;99.90;;;;;;4991947;28;20230;-79
2022/10/05 02:54:39;;;;;;;3.00;1.23;;;16.30;99.90;;;;;;4993270;28;20218;-80
2022/10/05 02:57:14;;;;;;;0.85;0.80;;;16.30;99.90;;;;;;4992642;28;20764;-80
2022/10/05 02:59:46;;;;;;;1.63;0.90;;;16.30;99.90;;;;;;4993892;28;20214;-78
2022/10/05 03:02:21;;;;;;;2.22;0.80;;;16.30;99.90;;;;;;4996226;28;20191;-80
2022/10/05 03:04:57;;;;;;;2.67;1.00;;;16.30;99.90;;;;;;4995243;28;20227;-78
2022/10/05 03:07:30;;;;;;;2.25;1.38;;;16.30;99.90;;;;;;4995429;28;20207;-79
2022/10/05 03:10:05;;;;;;;3.63;1.33;;;16.30;99.90;;;;;;4996426;28;20219;-80
2022/10/05 03:12:44;;;;;;;2.72;0.95;;;16.30;99.90;;;;;;4995963;28;20310;-79
2022/10/05 03:15:33;;;;;;;3.17;1.17;;;16.30;99.90;;;;;;4995828;28;20290;-80
2022/10/05 03:18:10;;;;;;;2.25;1.05;;;16.30;99.90;;;;;;4994703;28;20200;-80
2022/10/05 03:20:43;;;;;;;3.40;1.30;;;16.20;99.90;;;;;;4995850;28;20206;-80
2022/10/05 03:23:19;;;;;;;2.72;0.95;;;16.20;99.90;;;;;;4995692;28;20200;-79
2022/10/05 03:26:05;;;;;;;2.40;1.25;;;16.20;99.90;;;;;;4994958;28;20192;-80
2022/10/05 03:28:38;;;;;;;3.08;1.30;;;16.20;99.90;;;;;;4996150;28;20203;-79
2022/10/05 03:31:14;;;;;;;2.15;1.00;;;16.20;99.90;;;;;;4995228;28;20208;-79
2022/10/05 03:33:47;;;;;;;6.10;1.55;;;16.20;99.90;;;;;;4994719;28;20203;-78
2022/10/05 03:36:22;;;;;;;5.45;1.52;;;16.20;99.90;;;;;;4995120;28;20204;-79
2022/10/05 03:38:57;;;;;;;3.50;0.90;;;16.20;99.90;;;;;;4994811;28;20203;-79
2022/10/05 03:41:31;;;;;;;2.78;1.23;;;16.10;99.90;;;;;;4994901;28;20199;-79
2022/10/05 03:44:26;;;;;;;3.47;1.20;;;16.20;99.90;;;;;;4995257;28;20226;-79
2022/10/05 03:47:11;;;;;;;4.32;1.27;;;16.20;99.90;;;;;;4994312;28;20203;-78
2022/10/05 03:49:52;;;;;;;5.43;1.52;;;16.20;99.90;;;;;;4988993;28;20203;-80
2022/10/05 03:52:23;;;;;;;2.47;1.20;;;16.10;99.90;;;;;;4994769;28;20218;-80
2022/10/05 03:54:56;;;;;;;3.55;1.50;;;16.10;99.90;;;;;;4994712;28;20196;-79
2022/10/05 03:57:26;;;;;;;3.90;1.60;;;16.10;99.90;;;;;;4995140;28;20433;-78
2022/10/05 04:00:00;;;;;;;2.63;1.23;;;16.10;99.90;;;;;;5010263;28;20203;-80
2022/10/05 04:02:33;;;;;;;2.75;1.42;;;16.10;99.90;;;;;;5014149;28;20307;-79
2022/10/05 04:05:05;;;;;;;2.60;1.52;;;16.20;99.90;;;;;;5005326;28;20556;-80
2022/10/05 04:07:42;;;;;;;4.15;1.30;;;16.20;99.90;;;;;;4994354;28;20203;-80
2022/10/05 04:10:17;;;;;;;3.35;1.58;;;16.20;99.90;;;;;;4994468;28;20218;-79
2022/10/05 04:12:47;;;;;;;3.45;1.45;;;16.20;99.90;;;;;;4994480;28;20650;-80
2022/10/05 04:15:22;;;;;;;3.35;1.40;;;16.10;99.90;;;;;;4994353;28;20192;-78
2022/10/05 04:17:54;;;;;;;1.80;1.35;;;16.10;99.90;;;;;;4994524;28;20195;-80
2022/10/05 04:20:26;;;;;;;2.40;1.48;;;16.20;99.90;;;;;;4994888;28;20198;-79
2022/10/05 04:22:59;;;;;;;4.53;1.33;;;16.20;99.90;;;;;;4993391;28;20207;-79
2022/10/05 04:25:29;;;;;;;5.18;1.80;;;16.20;99.90;;;;;;4994137;28;20667;-79
2022/10/05 04:28:04;;;;;;;3.55;1.40;;;16.20;99.90;;;;;;4993587;28;20210;-79
2022/10/05 04:30:32;;;;;;;3.42;1.52;;;16.20;99.90;;;;;;4994273;28;20294;-80
2022/10/05 04:33:00;;;;;;;6.38;1.65;;;16.20;99.90;;;;;;4994458;28;20663;-78
2022/10/05 04:35:40;;;;;;;2.88;1.05;;;16.10;99.90;;;;;;4993248;28;20195;-79
2022/10/05 04:38:20;;;;;;;3.45;1.30;;;16.10;99.90;;;;;;4993797;28;20490;-78
2022/10/05 04:41:10;;;;;;;4.07;1.33;;;16.10;99.90;;;;;;4993846;28;20219;-78
2022/10/05 04:43:52;;;;;;;2.97;1.27;;;16.20;99.90;;;;;;4992991;28;20295;-78
2022/10/05 04:46:33;;;;;;;3.83;1.75;;;16.10;99.90;;;;;;4993994;28;20211;-80
2022/10/05 04:49:22;;;;;;;2.25;0.90;;;16.10;99.90;;;;;;4993284;28;20530;-80
2022/10/05 04:51:59;;;;;;;3.42;1.50;;;16.10;99.90;;;;;;4993608;28;20650;-78
2022/10/05 04:54:36;;;;;;;2.90;1.50;;;16.10;99.90;;;;;;4993710;28;20210;-78
2022/10/05 04:57:07;;;;;;;3.13;1.63;;;16.10;99.90;;;;;;4993006;28;20224;-78
2022/10/05 05:00:05;;;;;;;3.08;1.25;;;16.20;99.90;;;;;;4993822;28;20196;-78
2022/10/05 05:02:45;;;;;;;3.47;1.48;;;16.10;99.90;;;;;;4980334;28;20208;-78
2022/10/05 05:05:27;;;;;;;1.80;1.40;;;16.10;99.90;;;;;;4993007;28;20198;-77
2022/10/05 05:08:05;;;;;;;3.08;1.80;;;16.00;99.90;;;;;;4993580;28;20188;-79
2022/10/05 05:11:06;;;;;;;2.33;1.42;;;16.00;99.90;;;;;;4993290;28;20192;-79
2022/10/05 05:13:56;;;;;;;2.22;1.30;;;16.00;99.90;;;;;;4993205;28;20254;-77
2022/10/05 05:16:32;;;;;;;2.10;1.13;;;16.00;99.90;;;;;;4961365;28;20223;-79
2022/10/05 05:19:19;;;;;;;3.92;1.65;;;16.10;99.90;;;;;;4992422;28;20709;-79
2022/10/05 05:21:54;;;;;;;4.00;1.45;;;16.10;99.90;;;;;;4993263;28;20235;-78
2022/10/05 05:24:33;;;;;;;2.75;1.38;;;16.00;99.90;;;;;;4992262;28;20237;-80
2022/10/05 05:27:10;;;;;;;3.72;1.40;;;16.00;99.90;;;;;;4992872;28;20195;-79
2022/10/05 05:29:47;;;;;;;2.33;1.20;;;16.00;99.90;;;;;;4993249;28;20188;-79
2022/10/05 05:32:23;;;;;;;2.03;1.20;;;16.00;99.90;;;;;;5012706;28;20230;-79
2022/10/05 05:35:04;;;;;;;1.80;1.17;;;16.00;99.90;;;;;;5020121;28;20203;-78
2022/10/05 05:37:36;;;;;;;2.60;1.27;;;16.00;99.90;;;;;;4986265;28;20659;-79
2022/10/05 05:40:14;;;;;;;3.28;1.67;;;16.00;99.90;;;;;;4992470;28;20203;-79
2022/10/05 05:42:53;;;;;;;2.38;1.20;;;16.00;99.90;;;;;;4992338;28;20238;-78
2022/10/05 05:45:34;;;;;;;2.03;1.33;;;16.00;99.90;;;;;;4992366;28;20226;-78
2022/10/05 05:48:06;;;;;;;2.05;1.10;;;16.00;99.90;;;;;;4992978;28;20191;-78
2022/10/05 05:50:45;;;;;;;2.67;1.42;;;16.00;99.90;;;;;;4992909;28;20271;-79
2022/10/05 05:53:18;;;;;;;3.05;1.23;;;16.00;99.90;;;;;;4991636;28;20315;-78
2022/10/05 05:55:51;;;;;;;2.97;1.13;;;16.00;99.90;;;;;;4992593;28;20200;-79
2022/10/05 05:58:24;;;;;;;1.45;1.10;;;16.00;99.90;;;;;;4992436;28;20235;-79
2022/10/05 06:00:57;;;;;;;2.90;1.08;;;16.00;99.90;;;;;;4991625;28;20208;-79
2022/10/05 06:03:30;;;;;;;1.30;0.90;;;16.00;99.90;;;;;;4992354;28;20184;-78
2022/10/05 06:06:00;;;;;;;3.67;0.90;;;16.00;99.90;;;;;;4992466;28;20200;-80
2022/10/05 06:08:34;;;;;;;2.08;0.80;;;16.00;99.90;;;;;;4991388;28;20192;-78
2022/10/05 06:11:08;;;;;;;1.33;0.88;;;16.00;99.90;;;;;;5000640;28;20184;-81
2022/10/05 06:13:38;;;;;;;2.67;1.10;;;16.00;99.90;;;;;;5005148;28;20199;-79
2022/10/05 06:16:12;;;;;;;1.20;0.95;;;16.00;99.90;;;;;;4992342;28;20200;-79
2022/10/05 06:18:43;;;;;;;1.73;0.98;;;16.00;99.90;;;;;;4992077;28;20291;-79
2022/10/05 06:21:15;;;;;;;1.67;0.80;;;16.00;99.90;;;;;;4990968;28;20624;-79
2022/10/05 06:23:48;;;;;;;1.25;1.00;;;16.00;99.90;;;;;;4991480;28;20614;-79
2022/10/05 06:26:30;;;;;;;2.40;1.00;;;16.00;99.90;;;;;;4991319;28;20210;-79
2022/10/05 06:29:02;;;;;;;2.47;1.05;;;16.00;99.90;;;;;;5008659;28;20207;-79
2022/10/05 06:31:48;;;;;;;0.95;0.70;;;15.90;99.90;;;;;;5031134;28;20187;-79
2022/10/05 06:34:33;;;;;;;1.58;0.98;;;16.00;99.90;;;;;;5013085;28;20254;-79
2022/10/05 06:37:03;;;;;;;1.95;1.05;;;16.00;99.90;;;;;;4991279;28;20254;-78
2022/10/05 06:39:55;;;;;;;2.58;0.98;;;16.00;99.90;;;;;;4992068;28;20204;-78
2022/10/05 06:42:40;;;;;;;1.48;1.00;;;16.00;99.90;;;;;;4991603;28;20239;-79
2022/10/05 06:45:16;;;;;;;1.23;0.80;;;16.00;99.90;;;;;;4992145;28;20188;-80
2022/10/05 06:47:50;;;;;;;2.63;1.02;;;16.00;99.90;;;;;;4995651;28;20204;-78
2022/10/05 06:50:29;;;;;;;1.73;0.93;;;16.10;99.90;;;;;;4994659;28;20176;-80
2022/10/05 06:53:20;;;;;;;2.63;1.20;;;16.10;99.90;;;;;;4994488;28;20226;-80
2022/10/05 06:55:53;;;;;;;2.00;1.30;;;16.00;99.90;;;;;;4994108;28;20196;-78
2022/10/05 06:58:33;;;;;;;2.55;1.02;;;16.00;99.90;;;;;;4995296;28;20723;-82
2022/10/05 07:01:04;;;;;;;2.88;1.50;;;16.00;99.90;;;;;;5000102;28;20215;-78
2022/10/05 07:03:44;;;;;;;3.53;1.50;;;16.00;99.90;;;;;;5021075;28;20667;-78
2022/10/05 07:06:16;;;;;;;5.55;1.98;;;16.10;99.90;;;;;;5023707;28;20778;-78
2022/10/05 07:08:54;;;;;;;5.32;1.30;;;16.10;99.90;;;;;;5022821;28;20207;-81
2022/10/05 07:11:33;;;;;;;6.25;1.60;;;16.20;99.90;;;;;;5018709;28;20217;-79
2022/10/05 07:14:20;;;;;;;6.00;1.70;;;16.20;99.90;;;;;;5016749;28;20411;-79
2022/10/05 07:17:15;;;;;;;3.63;0.90;;;16.30;99.90;;;;;;5008202;28;20221;-78
2022/10/05 07:19:51;;;;;;;6.07;2.47;;;16.30;99.90;;;;;;5034256;28;20245;-78
2022/10/05 07:22:55;;;;;;;4.90;1.75;;;16.30;99.90;;;;;;5034532;28;20274;-80
2022/10/05 07:25:28;;;;;;;4.55;1.30;;;16.40;99.90;;;;;;4979798;28;20232;-80
2022/10/05 07:28:03;;;;;;;2.78;1.15;;;16.40;99.90;;;;;;4995112;28;20631;-80
2022/10/05 07:30:35;;;;;;;2.13;1.10;;;16.40;99.90;;;;;;4995281;28;20183;-81
2022/10/05 07:33:10;;;;;;;3.80;1.20;;;16.40;99.90;;;;;;5006796;28;20208;-78
2022/10/05 07:38:46;;;;;;;5.45;1.75;;;16.40;99.90;;;;;;5014120;28;20864;-79
2022/10/05 07:41:19;;;;;;;2.75;1.20;;;16.50;99.90;;;;;;4997382;28;20200;-81
2022/10/05 07:43:54;;;;;;;3.67;1.42;;;16.60;99.90;;;;;;4995051;28;20283;-81
2022/10/05 07:46:28;;;;;;;1.73;1.05;;;16.60;99.90;;;;;;4994947;28;20283;-79
2022/10/05 07:49:02;;;;;;;6.28;1.30;;;16.60;99.90;;;;;;4995551;28;20212;-80
2022/10/05 07:51:36;;;;;;;2.13;1.40;;;16.60;99.90;;;;;;4994974;28;20584;-77
2022/10/05 07:54:15;;;;;;;3.13;0.95;;;16.70;99.90;;;;;;4994167;28;20774;-79
2022/10/05 07:56:44;;;;;;;1.98;1.20;;;16.70;99.90;;;;;;4994223;28;20525;-79
2022/10/05 07:59:17;;;;;;;3.53;1.30;;;16.80;99.90;;;;;;4993696;28;20208;-78
2022/10/05 08:01:50;;;;;;;2.38;1.58;;;16.80;99.90;;;;;;5005725;28;20215;-77
2022/10/05 08:04:22;;;;;;;2.42;1.35;;;16.80;99.90;;;;;;5012836;28;20202;-78
2022/10/05 08:06:53;;;;;;;6.88;1.58;;;16.80;99.90;;;;;;5013552;28;20195;-81
2022/10/05 08:09:30;;;;;;;2.28;1.20;;;16.90;99.90;;;;;;5013117;28;20610;-80
2022/10/05 08:12:05;;;;;;;4.68;1.60;;;16.90;99.90;;;;;;5014417;28;20658;-81
2022/10/05 08:14:42;;;;;;;4.35;1.30;;;16.90;99.90;;;;;;5013908;28;20194;-78
2022/10/05 08:17:20;;;;;;;4.00;1.40;;;17.00;99.90;;;;;;4999516;28;20206;-79
2022/10/05 08:19:53;;;;;;;3.10;1.20;;;17.00;99.90;;;;;;4995732;28;20196;-82
2022/10/05 08:22:25;;;;;;;4.80;1.67;;;17.00;99.90;;;;;;4994599;28;20215;-80
2022/10/05 08:24:58;;;;;;;4.18;1.50;;;17.00;99.90;;;;;;4994189;28;20228;-79
2022/10/05 08:27:30;;;;;;;3.22;1.52;;;17.00;99.90;;;;;;4995206;28;20207;-81
2022/10/05 08:30:01;;;;;;;2.50;1.20;;;17.00;99.90;;;;;;5013346;28;20190;-79
2022/10/05 08:32:37;;;;;;;3.55;1.33;;;17.10;99.90;;;;;;5003932;28;20231;-81
2022/10/05 08:35:19;;;;;;;4.35;1.20;;;17.10;99.90;;;;;;5014376;28;20191;-85
2022/10/05 08:37:48;;;;;;;7.05;1.13;;;17.10;99.90;;;;;;5015153;28;20283;-85
2022/10/05 08:40:59;;;;;;;2.58;1.30;;;17.20;99.90;;;;;;5012494;28;20204;-87
2022/10/05 08:43:44;;;;;;;5.25;1.58;;;17.20;99.90;;;;;;4990786;28;20203;-82
2022/10/05 08:46:47;;;;;;;4.32;1.45;;;17.30;99.90;;;;;;5026729;28;20211;-83
2022/10/05 08:49:43;;;;;;;2.45;1.20;;;17.30;99.90;;;;;;5009730;28;20306;-83
2022/10/05 08:52:24;;;;;;;2.70;1.30;;;17.30;99.90;;;;;;5011843;28;20213;-85
2022/10/05 08:55:20;;;;;;;2.47;1.27;;;17.30;99.90;;;;;;5012869;28;20265;-82
2022/10/05 08:58:05;;;;;;;1.52;1.20;;;17.30;99.90;;;;;;5022501;28;20912;-84
2022/10/05 09:00:46;;;;;;;4.32;1.70;;;17.30;99.90;;;;;;5032192;28;20203;-82
2022/10/05 09:03:39;;;;;;;4.20;1.50;;;17.30;99.90;;;;;;5032510;28;20205;-84
2022/10/05 09:06:25;;;;;;;4.97;1.60;;;17.30;99.90;;;;;;5024357;28;20271;-86
2022/10/05 09:09:09;;;;;;;6.30;2.30;;;17.30;99.90;;;;;;5013844;28;20493;-80
2022/10/05 09:11:39;;;;;;;2.65;1.33;;;17.30;99.90;;;;;;5013010;28;20209;-82
2022/10/05 09:14:28;;;;;;;3.28;1.45;;;17.40;99.90;;;;;;5012337;28;20227;-80
2022/10/05 09:17:30;;;;;;;3.05;1.38;;;17.40;99.90;;;;;;5020325;28;20217;-85
2022/10/05 09:20:25;;;;;;;6.10;1.38;;;17.40;99.90;;;;;;5012618;28;20531;-82
2022/10/05 09:23:20;;;;;;;2.70;1.40;;;17.40;99.90;;;;;;5015124;28;20274;-85
2022/10/05 09:25:58;;;;;;;3.80;1.27;;;17.40;99.90;;;;;;4990160;28;20208;-81
2022/10/05 09:28:32;;;;;;;1.40;1.10;;;17.40;99.90;;;;;;4992587;28;20192;-83
2022/10/05 09:31:10;;;;;;;3.05;1.50;;;17.40;99.90;;;;;;4994334;28;20727;-78
2022/10/05 09:34:03;;;;;;;2.97;1.30;;;17.40;99.90;;;;;;4992228;28;20216;-78
2022/10/05 09:37:09;;;;;;;2.33;1.00;;;17.40;99.90;;;;;;4994356;28;20619;-80
2022/10/05 09:40:17;;;;;;;4.00;1.50;;;17.40;99.90;;;;;;4949615;28;20516;-83
2022/10/05 09:43:14;;;;;;;3.20;1.27;;;17.40;99.90;;;;;;4928229;28;20207;-84
2022/10/05 09:46:17;;;;;;;2.75;1.35;;;17.40;99.90;;;;;;4935354;28;20205;-83
2022/10/05 09:49:12;;;;;;;4.22;1.40;;;17.40;99.90;;;;;;4976179;28;20200;-83
2022/10/05 09:52:11;;;;;;;4.35;1.40;;;17.40;99.90;;;;;;4972127;28;20212;-80
2022/10/05 09:55:19;;;;;;;4.72;1.30;;;17.40;99.90;;;;;;4977260;28;20232;-83
2022/10/05 09:58:27;;;;;;;5.55;1.45;;;17.40;99.90;;;;;;4999722;28;20207;-82
2022/10/05 10:01:18;;;;;;;4.88;1.25;;;17.40;99.90;;;;;;5014836;28;20192;-83
2022/10/05 10:04:13;;;;;;;3.72;1.40;;;17.50;99.90;;;;;;4997476;28;20201;-84
2022/10/05 10:07:01;;;;;;;2.47;1.42;;;17.50;99.90;;;;;;5004557;28;20550;-84
2022/10/05 10:09:36;;;;;;;3.90;1.25;;;17.50;99.90;;;;;;5005044;28;20216;-81
2022/10/05 10:12:32;;;;;;;3.63;1.33;;;17.50;99.90;;;;;;5003707;28;20203;-82
2022/10/05 10:15:27;;;;;;;3.90;1.38;;;17.50;99.90;;;;;;4997840;28;20223;-83
2022/10/05 10:18:20;;;;;;;3.78;1.40;;;17.40;99.90;;;;;;4994694;28;20206;-84
2022/10/05 10:21:28;;;;;;;2.55;1.40;;;17.50;99.90;;;;;;4995755;28;20199;-81
2022/10/05 10:24:13;;;;;;;4.75;1.40;;;17.40;99.90;;;;;;4981795;28;20291;-82
2022/10/05 10:27:01;;;;;;;6.10;1.73;;;17.40;99.90;;;;;;4999006;28;20196;-78
2022/10/05 10:30:04;;;;;;;3.83;1.10;;;17.50;99.90;;;;;;4999237;28;20615;-79
2022/10/05 10:33:14;;;;;;;3.22;1.50;;;17.40;99.90;;;;;;4996366;28;20207;-79
2022/10/05 10:35:49;;;;;;;4.75;1.30;;;17.40;99.90;;;;;;4993496;28;20290;-83
2022/10/05 10:38:30;;;;;;;3.50;1.40;;;17.40;99.90;;;;;;4999399;28;20198;-82
2022/10/05 10:41:20;;;;;;;4.22;1.17;;;17.40;99.90;;;;;;5000150;28;20196;-83
2022/10/05 10:44:15;;;;;;;4.68;1.17;;;17.30;99.90;;;;;;5000206;28;20328;-82
2022/10/05 10:46:51;;;;;;;2.95;1.23;;;17.40;99.90;;;;;;5000300;28;20192;-82
2022/10/05 10:49:36;;;;;;;6.25;1.95;;;17.30;99.90;;;;;;4999248;28;20211;-84
2022/10/05 10:52:23;;;;;;;4.70;1.70;;;17.30;99.90;;;;;;5000028;28;20214;-81
2022/10/05 10:55:21;;;;;;;3.83;1.35;;;17.40;99.90;;;;;;4998954;28;20223;-81
2022/10/05 10:58:12;;;;;;;3.60;1.83;;;17.40;99.90;;;;;;4998035;28;20227;-80
2022/10/05 11:00:50;;;;;;;4.97;1.42;;;17.30;99.90;;;;;;5009453;28;20218;-79
2022/10/05 11:03:54;;;;;;;5.25;1.58;;;17.30;99.90;;;;;;5011194;28;20200;-84
2022/10/05 11:06:33;;;;;;;7.40;1.55;;;17.30;99.90;;;;;;4952616;28;20297;-86
2022/10/05 11:09:27;;;;;;;8.48;2.05;;;17.30;99.90;;;;;;5016322;28;20211;-83
2022/10/05 11:15:32;;;;;;;6.22;1.48;;;17.30;99.90;;;;;;5136340;27;20716;-83
2022/10/05 11:18:16;;;;;;;4.35;1.58;;;17.30;99.90;;;;;;5116998;27;20221;-83
2022/10/05 11:21:15;;;;;;;5.38;1.67;;;17.30;99.90;;;;;;5146078;27;20191;-83
2022/10/05 11:24:24;;;;;;;3.80;1.50;;;17.30;99.90;;;;;;5134225;27;20188;-79
2022/10/05 11:27:06;;;;;;;3.20;1.30;;;17.30;99.90;;;;;;5111143;28;20192;-82
2022/10/05 11:30:02;;;;;;;4.50;1.40;;;17.20;99.90;;;;;;5110837;28;20206;-83
2022/10/05 11:33:10;;;;;;;4.38;1.50;;;17.20;99.90;;;;;;5110784;28;20538;-82
2022/10/05 11:36:08;;;;;;;4.18;1.67;;;17.30;99.90;;;;;;5110851;28;20648;-80
2022/10/05 11:39:16;;;;;;;3.92;1.30;;;17.30;99.90;;;;;;5110408;28;20275;-81
2022/10/05 11:42:06;;;;;;;3.72;1.35;;;17.30;99.90;;;;;;5109982;28;20199;-85
2022/10/05 11:45:12;;;;;;;3.92;1.45;;;17.30;99.90;;;;;;5109556;28;20256;-80
2022/10/05 11:48:16;;;;;;;2.63;1.75;;;17.30;99.90;;;;;;5110241;28;20206;-83
2022/10/05 11:50:57;;;;;;;5.15;1.20;;;17.40;99.90;;;;;;5093291;28;20203;-79
2022/10/05 11:53:29;;;;;;;4.70;1.70;;;17.40;99.90;;;;;;5109996;28;20334;-83
2022/10/05 11:56:05;;;;;;;3.38;1.17;;;17.50;99.90;;;;;;5109859;28;20212;-80
2022/10/05 11:58:36;;;;;;;3.38;1.40;;;17.50;99.90;;;;;;5110922;28;20218;-84
2022/10/05 12:01:12;;;;;;;4.15;1.40;;;17.50;99.90;;;;;;5106543;28;20283;-83
2022/10/05 12:03:50;;;;;;;4.90;1.33;;;17.60;99.90;;;;;;5089747;28;20193;-81
2022/10/05 12:06:39;;;;;;;2.00;1.13;;;17.60;99.90;;;;;;5093416;28;20192;-82
2022/10/05 12:09:22;;;;;;;2.97;1.20;;;17.60;99.90;;;;;;5110184;28;20192;-83
2022/10/05 12:11:59;;;;;;;2.17;1.38;;;17.70;99.90;;;;;;5109668;28;20615;-83
2022/10/05 12:14:33;;;;;;;2.13;1.25;;;17.70;99.90;;;;;;5107416;28;20322;-85
2022/10/05 12:17:06;;;;;;;2.72;1.40;;;17.70;99.90;;;;;;5089840;28;20183;-81
2022/10/05 12:19:36;;;;;;;2.70;1.38;;;17.80;99.90;;;;;;5099539;28;20210;-83
2022/10/05 12:22:15;;;;;;;4.82;1.30;;;17.80;99.90;;;;;;5109273;28;20204;-82
2022/10/05 12:25:02;;;;;;;2.45;1.50;;;17.90;99.90;;;;;;5103969;28;20205;-83
2022/10/05 12:27:34;;;;;;;4.72;1.60;;;18.00;99.90;;;;;;5096032;28;20748;-86
2022/10/05 12:30:11;;;;;;;4.93;1.50;;;18.00;99.90;;;;;;5095757;28;20204;-81
2022/10/05 12:32:45;;;;;;;4.82;1.52;;;18.10;99.90;;;;;;5095766;28;20275;-85
2022/10/05 12:35:18;;;;;;;7.00;1.98;;;18.10;99.90;;;;;;5095347;28;20212;-81
2022/10/05 12:37:52;;;;;;;3.88;1.77;;;18.20;99.90;;;;;;5095931;28;20279;-83
2022/10/05 12:40:28;;;;;;;5.38;1.58;;;18.20;99.90;;;;;;5094703;28;20579;-82
2022/10/05 12:43:06;;;;;;;7.70;1.75;;;18.40;99.90;;;;;;5095013;28;20199;-85
2022/10/05 12:45:59;;;;;;;5.95;1.63;;;18.40;99.90;;;;;;5096253;28;20192;-83
2022/10/05 12:49:17;;;;;;;5.35;1.63;;;18.50;99.90;;;;;;5093543;28;20283;-79
2022/10/05 12:51:50;;;;;;;4.65;1.70;;;18.50;99.90;;;;;;4986546;28;20215;-77
2022/10/05 12:54:24;;;;;;;8.00;2.13;;;18.60;99.90;;;;;;5089254;28;20231;-78
2022/10/05 12:56:54;;;;;;;3.17;1.52;;;18.70;99.90;;;;;;5095742;28;20251;-80
2022/10/05 12:59:38;;;;;;;6.03;1.65;;;18.70;99.90;;;;;;5104903;28;20196;-81
2022/10/05 13:02:17;;;;;;;4.63;1.67;;;18.80;99.90;;;;;;5097142;28;20549;-78
2022/10/05 13:04:51;;;;;;;5.15;2.00;;;18.90;99.90;;;;;;5097344;28;20185;-83
2022/10/05 13:07:44;;;;;;;5.20;1.30;;;18.90;99.90;;;;;;5097094;28;20222;-80
2022/10/05 13:10:26;;;;;;;4.43;1.60;;;19.00;99.90;;;;;;5091841;28;20188;-80
2022/10/05 13:13:05;;;;;;;5.88;1.65;;;19.20;99.90;;;;;;5094162;28;20185;-80
2022/10/05 13:15:40;;;;;;;7.22;1.75;;;19.30;99.90;;;;;;5093255;28;20619;-82
2022/10/05 13:18:17;;;;;;;4.13;1.73;;;19.30;99.90;;;;;;5094371;28;20204;-80
2022/10/05 13:20:48;;;;;;;5.30;1.85;;;19.40;99.90;;;;;;5083507;28;20227;-81
2022/10/05 13:23:24;;;;;;;5.38;1.92;;;19.30;99.90;;;;;;5073187;28;20186;-79
2022/10/05 13:26:02;;;;;;;7.13;1.80;;;19.30;99.90;;;;;;5074173;28;20196;-80
2022/10/05 13:28:36;;;;;;;7.38;1.88;;;19.20;99.90;;;;;;5075794;28;20589;-78
2022/10/05 13:31:11;;;;;;;4.00;1.60;;;19.20;99.90;;;;;;5097287;28;20244;-80
2022/10/05 13:34:00;;;;;;;6.22;1.80;;;19.20;99.90;;;;;;5105312;28;20200;-78
2022/10/05 13:36:39;;;;;;;4.80;1.80;;;19.10;99.90;;;;;;5085874;28;20292;-80
2022/10/05 13:39:18;;;;;;;3.83;1.50;;;19.10;99.90;;;;;;5095873;28;20203;-81
2022/10/05 13:41:51;;;;;;;6.03;2.25;;;19.00;99.90;;;;;;5113853;28;20482;-81
2022/10/05 13:44:25;;;;;;;3.78;1.50;;;19.00;99.90;;;;;;5072768;28;20623;-79
2022/10/05 13:46:59;;;;;;;6.68;1.80;;;18.90;99.90;;;;;;5092316;28;20260;-81
2022/10/05 13:49:37;;;;;;;5.22;1.58;;;18.90;99.90;;;;;;5093320;28;20605;-78
2022/10/05 13:52:16;;;;;;;5.53;1.60;;;18.90;99.90;;;;;;5092569;28;20231;-80
2022/10/05 13:54:50;;;;;;;3.97;1.85;;;18.80;99.90;;;;;;5092325;28;20620;-80
2022/10/05 13:57:34;;;;;;;5.07;1.73;;;18.80;99.90;;;;;;5092091;28;20215;-80
2022/10/05 14:00:05;;;;;;;7.82;1.92;;;18.80;99.90;;;;;;5093414;28;20188;-82